Home PIREPS Pireps

Flight BEL7227

  • Submitted By: Vincent Fourni
  • Departure Airport: Bruxelles National (EBBR)
  • Arrival Airport: Oslo Airport, Gardermoen (ENGM)
  • Aircraft: BAE AVRO RJ1 (OO-DWC)
  • Flight Time: 01.59
  • Date Submitted: 01/12/2017
  • Status: Accepted
Flight Details
Gross Revenue:
(84 load / € 150.00 per unit
€ 12,600.00
Fuel Cost:
(18141 fuel used @ 5.1 / unit)
€ 92,519.10

Additional Log Information:

View Log

Aircraft Used in flight is PMDG 777-200LR PMDG Brussels
09:45 Brakes are On
09:47 Brakes are Released
09:49 Brakes are On
09:51 Brakes are Released
09:58 You Took off @ 187 Knots and Flaps at Position 3
Departure Weather
EBBR 010820Z 03004KT 360V060 3000 BR BKN005 01/M00 Q1014 BECMG 6000 NSW SCT006rn
09:58 Landing Gear Up @ 196 Knots and 430 Feet
10:00 Below 10000 feet you are not allowed to go over 250 knots
10:02 Above FL100 you need to switch of the landing lights
11:40 Landing Gear Down @ 210 Knots and 3480 Feet
11:44 You Landed @ 128 Knots and with -1000 Vertical Speed
Arrival Weather
ENGM 011020Z 35004KT 320V020 CAVOK M04/M09 Q1017 NOSIGrn
11:44 Your Landing was very hard
11:44 Paused
11:47 Unpaused
11:48 Brakes are On
11:49 Brussels Bel-Track1.0.1.2

Route Map

Corporate About Us Our Team Vacancies Information Fleet Route Network Rules and Regulations Operations Flight Schedules Event Center Tours Partners IVAO Vatsim Acars dev FSCB

fb Users Online Belgium Dominique Dory, South Africa Marc Toussaint,
2 Pilot(s) and 135 Guest(s) Online
CMS by phpVMS - Design by Crazycreatives.com - Copyright © 2020 - Brussels Airlines Virtual